sensor_id;sensor_type;location;lat;lon;timestamp;temperature;humidity
14727;DHT22;7454;51.256;8.176;2022-12-18T00:01:01;-5.70;72.20
14727;DHT22;7454;51.256;8.176;2022-12-18T00:03:32;-5.80;72.30
14727;DHT22;7454;51.256;8.176;2022-12-18T00:05:58;-5.80;73.00
14727;DHT22;7454;51.256;8.176;2022-12-18T00:08:24;-5.70;73.40
14727;DHT22;7454;51.256;8.176;2022-12-18T00:10:49;-5.60;73.00
14727;DHT22;7454;51.256;8.176;2022-12-18T00:13:15;-5.70;72.50
14727;DHT22;7454;51.256;8.176;2022-12-18T00:15:41;-5.80;72.10
14727;DHT22;7454;51.256;8.176;2022-12-18T00:18:06;-5.90;72.40
14727;DHT22;7454;51.256;8.176;2022-12-18T00:20:35;-5.90;72.10
14727;DHT22;7454;51.256;8.176;2022-12-18T00:23:05;-6.00;72.20
14727;DHT22;7454;51.256;8.176;2022-12-18T00:25:34;-5.90;73.10
14727;DHT22;7454;51.256;8.176;2022-12-18T00:28:01;-5.70;73.50
14727;DHT22;7454;51.256;8.176;2022-12-18T00:30:27;-5.60;73.20
14727;DHT22;7454;51.256;8.176;2022-12-18T00:32:53;-5.60;72.70
14727;DHT22;7454;51.256;8.176;2022-12-18T00:35:19;-5.70;72.20
14727;DHT22;7454;51.256;8.176;2022-12-18T00:37:45;-5.70;72.20
14727;DHT22;7454;51.256;8.176;2022-12-18T00:40:11;-5.80;72.20
14727;DHT22;7454;51.256;8.176;2022-12-18T00:42:37;-5.80;72.10
14727;DHT22;7454;51.256;8.176;2022-12-18T00:45:21;-6.00;71.80
14727;DHT22;7454;51.256;8.176;2022-12-18T00:47:48;-6.10;71.70
14727;DHT22;7454;51.256;8.176;2022-12-18T00:50:14;-6.20;71.80
14727;DHT22;7454;51.256;8.176;2022-12-18T00:52:40;-6.20;71.90
14727;DHT22;7454;51.256;8.176;2022-12-18T00:55:06;-6.10;72.20
14727;DHT22;7454;51.256;8.176;2022-12-18T00:57:32;-6.10;72.40
14727;DHT22;7454;51.256;8.176;2022-12-18T00:59:57;-6.10;72.40
14727;DHT22;7454;51.256;8.176;2022-12-18T01:02:23;-6.00;72.70
14727;DHT22;7454;51.256;8.176;2022-12-18T01:04:48;-6.00;73.20
14727;DHT22;7454;51.256;8.176;2022-12-18T01:07:18;-5.80;73.50
14727;DHT22;7454;51.256;8.176;2022-12-18T01:09:43;-5.80;72.80
14727;DHT22;7454;51.256;8.176;2022-12-18T01:12:09;-5.90;72.60
14727;DHT22;7454;51.256;8.176;2022-12-18T01:14:34;-5.90;72.90
14727;DHT22;7454;51.256;8.176;2022-12-18T01:17:01;-5.90;72.40
14727;DHT22;7454;51.256;8.176;2022-12-18T01:19:31;-6.00;72.10
14727;DHT22;7454;51.256;8.176;2022-12-18T01:21:57;-6.10;72.00
14727;DHT22;7454;51.256;8.176;2022-12-18T01:24:22;-6.10;72.30
14727;DHT22;7454;51.256;8.176;2022-12-18T01:26:48;-6.10;71.90
14727;DHT22;7454;51.256;8.176;2022-12-18T01:29:14;-6.30;71.80
14727;DHT22;7454;51.256;8.176;2022-12-18T01:31:39;-6.30;72.10
14727;DHT22;7454;51.256;8.176;2022-12-18T01:34:05;-6.20;72.40
14727;DHT22;7454;51.256;8.176;2022-12-18T01:36:32;-6.20;72.00
14727;DHT22;7454;51.256;8.176;2022-12-18T01:38:59;-6.20;71.80
14727;DHT22;7454;51.256;8.176;2022-12-18T01:41:27;-6.10;72.40
14727;DHT22;7454;51.256;8.176;2022-12-18T01:47:18;-6.10;72.40
14727;DHT22;7454;51.256;8.176;2022-12-18T01:49:46;-6.10;72.50
14727;DHT22;7454;51.256;8.176;2022-12-18T01:52:11;-6.10;72.50
14727;DHT22;7454;51.256;8.176;2022-12-18T01:54:37;-6.10;72.30
14727;DHT22;7454;51.256;8.176;2022-12-18T01:57:02;-6.10;72.50
14727;DHT22;7454;51.256;8.176;2022-12-18T01:59:28;-6.10;72.80
14727;DHT22;7454;51.256;8.176;2022-12-18T02:01:56;-6.00;73.20
14727;DHT22;7454;51.256;8.176;2022-12-18T02:04:23;-6.00;72.70
14727;DHT22;7454;51.256;8.176;2022-12-18T02:06:52;-6.10;72.20
14727;DHT22;7454;51.256;8.176;2022-12-18T02:09:23;-6.10;72.40
14727;DHT22;7454;51.256;8.176;2022-12-18T02:12:04;-6.20;72.00
14727;DHT22;7454;51.256;8.176;2022-12-18T02:19:47;-6.40;71.80
14727;DHT22;7454;51.256;8.176;2022-12-18T02:27:44;-6.40;72.20
14727;DHT22;7454;51.256;8.176;2022-12-18T02:30:11;-6.30;72.90
14727;DHT22;7454;51.256;8.176;2022-12-18T02:32:38;-6.30;72.10
14727;DHT22;7454;51.256;8.176;2022-12-18T02:35:06;-6.20;72.80
14727;DHT22;7454;51.256;8.176;2022-12-18T02:37:34;-6.30;71.80
14727;DHT22;7454;51.256;8.176;2022-12-18T02:40:02;-6.30;72.20
14727;DHT22;7454;51.256;8.176;2022-12-18T02:42:30;-6.30;72.60
14727;DHT22;7454;51.256;8.176;2022-12-18T02:44:57;-6.30;72.10
14727;DHT22;7454;51.256;8.176;2022-12-18T02:47:26;-6.30;72.60
14727;DHT22;7454;51.256;8.176;2022-12-18T02:49:58;-6.20;72.90
14727;DHT22;7454;51.256;8.176;2022-12-18T02:52:38;-6.10;73.20
14727;DHT22;7454;51.256;8.176;2022-12-18T02:58:18;-6.10;73.00
14727;DHT22;7454;51.256;8.176;2022-12-18T03:06:41;-5.90;73.40
14727;DHT22;7454;51.256;8.176;2022-12-18T03:09:11;-5.70;73.50
14727;DHT22;7454;51.256;8.176;2022-12-18T03:11:40;-5.80;73.50
14727;DHT22;7454;51.256;8.176;2022-12-18T03:14:26;-5.80;72.80
14727;DHT22;7454;51.256;8.176;2022-12-18T03:16:56;-5.90;72.60
14727;DHT22;7454;51.256;8.176;2022-12-18T03:19:26;-6.00;72.20
14727;DHT22;7454;51.256;8.176;2022-12-18T03:21:57;-6.10;72.60
14727;DHT22;7454;51.256;8.176;2022-12-18T03:24:30;-6.10;72.40
14727;DHT22;7454;51.256;8.176;2022-12-18T03:26:58;-6.10;72.90
14727;DHT22;7454;51.256;8.176;2022-12-18T03:29:27;-6.00;73.20
14727;DHT22;7454;51.256;8.176;2022-12-18T03:32:01;-6.00;73.20
14727;DHT22;7454;51.256;8.176;2022-12-18T03:34:32;-6.00;72.90
14727;DHT22;7454;51.256;8.176;2022-12-18T03:37:02;-6.00;72.40
14727;DHT22;7454;51.256;8.176;2022-12-18T03:39:30;-6.10;72.90
14727;DHT22;7454;51.256;8.176;2022-12-18T03:47:29;-5.90;73.00
14727;DHT22;7454;51.256;8.176;2022-12-18T03:52:38;-5.90;72.80
14727;DHT22;7454;51.256;8.176;2022-12-18T03:55:19;-6.00;72.80
14727;DHT22;7454;51.256;8.176;2022-12-18T03:57:50;-6.00;73.00
14727;DHT22;7454;51.256;8.176;2022-12-18T04:00:17;-6.00;72.90
14727;DHT22;7454;51.256;8.176;2022-12-18T04:02:57;-5.90;72.80
14727;DHT22;7454;51.256;8.176;2022-12-18T04:05:33;-6.00;72.40
14727;DHT22;7454;51.256;8.176;2022-12-18T04:07:59;-6.00;72.50
14727;DHT22;7454;51.256;8.176;2022-12-18T04:10:27;-6.10;72.50
14727;DHT22;7454;51.256;8.176;2022-12-18T04:12:55;-6.20;72.30
14727;DHT22;7454;51.256;8.176;2022-12-18T04:15:21;-6.30;72.10
14727;DHT22;7454;51.256;8.176;2022-12-18T04:17:47;-6.40;72.00
14727;DHT22;7454;51.256;8.176;2022-12-18T04:20:16;-6.30;72.50
14727;DHT22;7454;51.256;8.176;2022-12-18T04:22:43;-6.20;73.00
14727;DHT22;7454;51.256;8.176;2022-12-18T04:25:08;-6.20;73.10
14727;DHT22;7454;51.256;8.176;2022-12-18T04:27:38;-6.10;73.30
14727;DHT22;7454;51.256;8.176;2022-12-18T04:30:05;-6.00;73.20
14727;DHT22;7454;51.256;8.176;2022-12-18T04:32:33;-6.00;73.40
14727;DHT22;7454;51.256;8.176;2022-12-18T04:34:59;-5.90;73.40
14727;DHT22;7454;51.256;8.176;2022-12-18T04:37:25;-5.90;73.00
14727;DHT22;7454;51.256;8.176;2022-12-18T04:39:51;-5.90;73.20
14727;DHT22;7454;51.256;8.176;2022-12-18T04:42:24;-5.80;73.30
14727;DHT22;7454;51.256;8.176;2022-12-18T04:44:49;-5.80;73.40
14727;DHT22;7454;51.256;8.176;2022-12-18T04:47:15;-5.90;72.70
14727;DHT22;7454;51.256;8.176;2022-12-18T04:49:40;-5.80;73.20
14727;DHT22;7454;51.256;8.176;2022-12-18T04:52:06;-5.80;73.40
14727;DHT22;7454;51.256;8.176;2022-12-18T04:54:33;-5.80;73.40
14727;DHT22;7454;51.256;8.176;2022-12-18T04:56:58;-5.80;73.40
14727;DHT22;7454;51.256;8.176;2022-12-18T04:59:24;-5.70;73.50
14727;DHT22;7454;51.256;8.176;2022-12-18T05:01:49;-5.80;73.00
14727;DHT22;7454;51.256;8.176;2022-12-18T05:04:15;-5.80;72.90
14727;DHT22;7454;51.256;8.176;2022-12-18T05:06:40;-5.80;73.10
14727;DHT22;7454;51.256;8.176;2022-12-18T05:09:06;-5.80;73.10
14727;DHT22;7454;51.256;8.176;2022-12-18T05:11:31;-5.80;73.20
14727;DHT22;7454;51.256;8.176;2022-12-18T05:13:57;-5.80;73.40
14727;DHT22;7454;51.256;8.176;2022-12-18T05:16:23;-5.70;73.50
14727;DHT22;7454;51.256;8.176;2022-12-18T05:18:48;-5.70;73.10
14727;DHT22;7454;51.256;8.176;2022-12-18T05:21:14;-5.80;72.80
14727;DHT22;7454;51.256;8.176;2022-12-18T05:23:39;-5.80;72.90
14727;DHT22;7454;51.256;8.176;2022-12-18T05:26:05;-5.80;73.10
14727;DHT22;7454;51.256;8.176;2022-12-18T05:28:32;-5.80;73.30
14727;DHT22;7454;51.256;8.176;2022-12-18T05:31:00;-5.70;73.40
14727;DHT22;7454;51.256;8.176;2022-12-18T05:33:29;-5.70;73.40
14727;DHT22;7454;51.256;8.176;2022-12-18T05:35:57;-5.80;72.90
14727;DHT22;7454;51.256;8.176;2022-12-18T05:38:25;-5.80;73.00
14727;DHT22;7454;51.256;8.176;2022-12-18T05:40:52;-5.80;73.30
14727;DHT22;7454;51.256;8.176;2022-12-18T05:43:18;-5.80;73.30
14727;DHT22;7454;51.256;8.176;2022-12-18T05:45:44;-5.70;73.40
14727;DHT22;7454;51.256;8.176;2022-12-18T05:48:10;-5.70;73.40
14727;DHT22;7454;51.256;8.176;2022-12-18T05:50:36;-5.60;73.70
14727;DHT22;7454;51.256;8.176;2022-12-18T05:53:04;-5.60;73.70
14727;DHT22;7454;51.256;8.176;2022-12-18T05:55:36;-5.60;73.80
14727;DHT22;7454;51.256;8.176;2022-12-18T05:58:03;-5.60;73.30
14727;DHT22;7454;51.256;8.176;2022-12-18T06:00:30;-5.60;73.70
14727;DHT22;7454;51.256;8.176;2022-12-18T06:02:57;-5.50;73.70
14727;DHT22;7454;51.256;8.176;2022-12-18T06:05:23;-5.50;73.50
14727;DHT22;7454;51.256;8.176;2022-12-18T06:07:48;-5.50;73.70
14727;DHT22;7454;51.256;8.176;2022-12-18T06:10:14;-5.40;74.00
14727;DHT22;7454;51.256;8.176;2022-12-18T06:12:39;-5.40;74.00
14727;DHT22;7454;51.256;8.176;2022-12-18T06:15:05;-5.30;74.00
14727;DHT22;7454;51.256;8.176;2022-12-18T06:17:31;-5.30;74.00
14727;DHT22;7454;51.256;8.176;2022-12-18T06:19:58;-5.20;74.00
14727;DHT22;7454;51.256;8.176;2022-12-18T06:22:23;-5.10;74.00
14727;DHT22;7454;51.256;8.176;2022-12-18T06:24:49;-5.10;73.90
14727;DHT22;7454;51.256;8.176;2022-12-18T06:27:15;-5.10;74.00
14727;DHT22;7454;51.256;8.176;2022-12-18T06:29:41;-5.10;73.90
14727;DHT22;7454;51.256;8.176;2022-12-18T06:32:06;-5.10;73.90
14727;DHT22;7454;51.256;8.176;2022-12-18T06:34:32;-5.10;73.90
14727;DHT22;7454;51.256;8.176;2022-12-18T06:36:58;-5.00;74.00
14727;DHT22;7454;51.256;8.176;2022-12-18T06:39:24;-5.00;74.00
14727;DHT22;7454;51.256;8.176;2022-12-18T06:41:52;-5.00;74.00
14727;DHT22;7454;51.256;8.176;2022-12-18T06:44:18;-4.90;74.00
14727;DHT22;7454;51.256;8.176;2022-12-18T06:46:44;-4.90;74.00
14727;DHT22;7454;51.256;8.176;2022-12-18T06:49:09;-4.90;74.00
14727;DHT22;7454;51.256;8.176;2022-12-18T06:51:35;-4.90;74.00
14727;DHT22;7454;51.256;8.176;2022-12-18T06:54:01;-4.90;73.90
14727;DHT22;7454;51.256;8.176;2022-12-18T06:56:27;-4.90;73.90
14727;DHT22;7454;51.256;8.176;2022-12-18T06:58:53;-4.90;73.90
14727;DHT22;7454;51.256;8.176;2022-12-18T07:01:20;-4.80;74.00
14727;DHT22;7454;51.256;8.176;2022-12-18T07:03:46;-4.80;73.90
14727;DHT22;7454;51.256;8.176;2022-12-18T07:06:16;-4.80;73.90
14727;DHT22;7454;51.256;8.176;2022-12-18T07:08:43;-4.80;73.90
14727;DHT22;7454;51.256;8.176;2022-12-18T07:11:10;-4.80;73.90
14727;DHT22;7454;51.256;8.176;2022-12-18T07:13:35;-4.70;74.00
14727;DHT22;7454;51.256;8.176;2022-12-18T07:16:21;-4.70;73.90
14727;DHT22;7454;51.256;8.176;2022-12-18T07:18:47;-4.70;73.90
14727;DHT22;7454;51.256;8.176;2022-12-18T07:21:14;-4.70;73.90
14727;DHT22;7454;51.256;8.176;2022-12-18T07:23:41;-4.60;73.90
14727;DHT22;7454;51.256;8.176;2022-12-18T07:26:08;-4.70;73.90
14727;DHT22;7454;51.256;8.176;2022-12-18T07:28:35;-4.70;73.90
14727;DHT22;7454;51.256;8.176;2022-12-18T07:31:02;-4.60;73.90
14727;DHT22;7454;51.256;8.176;2022-12-18T07:33:29;-4.60;73.90
14727;DHT22;7454;51.256;8.176;2022-12-18T07:35:54;-4.60;73.90
14727;DHT22;7454;51.256;8.176;2022-12-18T07:38:20;-4.60;73.80
14727;DHT22;7454;51.256;8.176;2022-12-18T07:40:46;-4.60;73.90
14727;DHT22;7454;51.256;8.176;2022-12-18T07:43:12;-4.50;73.90
14727;DHT22;7454;51.256;8.176;2022-12-18T07:45:37;-4.50;73.90
14727;DHT22;7454;51.256;8.176;2022-12-18T07:48:03;-4.50;73.80
14727;DHT22;7454;51.256;8.176;2022-12-18T07:50:29;-4.50;73.80
14727;DHT22;7454;51.256;8.176;2022-12-18T07:52:55;-4.40;73.90
14727;DHT22;7454;51.256;8.176;2022-12-18T07:55:20;-4.40;73.80
14727;DHT22;7454;51.256;8.176;2022-12-18T07:57:46;-4.40;73.90
14727;DHT22;7454;51.256;8.176;2022-12-18T08:00:12;-4.40;73.80
14727;DHT22;7454;51.256;8.176;2022-12-18T08:02:38;-4.40;73.90
14727;DHT22;7454;51.256;8.176;2022-12-18T08:05:04;-4.30;74.00
14727;DHT22;7454;51.256;8.176;2022-12-18T08:07:30;-4.30;74.10
14727;DHT22;7454;51.256;8.176;2022-12-18T08:09:55;-4.30;74.10
14727;DHT22;7454;51.256;8.176;2022-12-18T08:12:21;-4.20;74.00
14727;DHT22;7454;51.256;8.176;2022-12-18T08:14:46;-4.10;74.00
14727;DHT22;7454;51.256;8.176;2022-12-18T08:17:12;-4.20;74.00
14727;DHT22;7454;51.256;8.176;2022-12-18T08:19:37;-4.10;74.00
14727;DHT22;7454;51.256;8.176;2022-12-18T08:22:03;-4.10;74.00
14727;DHT22;7454;51.256;8.176;2022-12-18T08:24:28;-4.10;74.00
14727;DHT22;7454;51.256;8.176;2022-12-18T08:26:54;-4.00;74.00
14727;DHT22;7454;51.256;8.176;2022-12-18T08:29:20;-4.00;74.00
14727;DHT22;7454;51.256;8.176;2022-12-18T08:31:45;-3.90;74.00
14727;DHT22;7454;51.256;8.176;2022-12-18T08:34:11;-3.90;74.00
14727;DHT22;7454;51.256;8.176;2022-12-18T08:36:36;-3.90;73.90
14727;DHT22;7454;51.256;8.176;2022-12-18T08:39:02;-3.80;74.00
14727;DHT22;7454;51.256;8.176;2022-12-18T08:41:28;-3.80;73.90
14727;DHT22;7454;51.256;8.176;2022-12-18T08:43:53;-3.70;74.00
14727;DHT22;7454;51.256;8.176;2022-12-18T08:46:39;-3.70;74.00
14727;DHT22;7454;51.256;8.176;2022-12-18T08:49:06;-3.60;74.00
14727;DHT22;7454;51.256;8.176;2022-12-18T08:51:32;-3.50;74.00
14727;DHT22;7454;51.256;8.176;2022-12-18T08:53:58;-3.50;74.00
14727;DHT22;7454;51.256;8.176;2022-12-18T08:56:24;-3.40;73.90
14727;DHT22;7454;51.256;8.176;2022-12-18T08:58:53;-3.40;73.80
14727;DHT22;7454;51.256;8.176;2022-12-18T09:01:20;-3.30;73.70
14727;DHT22;7454;51.256;8.176;2022-12-18T09:03:46;-3.20;73.60
14727;DHT22;7454;51.256;8.176;2022-12-18T09:06:15;-3.10;73.70
14727;DHT22;7454;51.256;8.176;2022-12-18T09:08:42;-3.00;73.50
14727;DHT22;7454;51.256;8.176;2022-12-18T09:11:18;-3.00;73.40
14727;DHT22;7454;51.256;8.176;2022-12-18T09:13:45;-2.90;73.40
14727;DHT22;7454;51.256;8.176;2022-12-18T09:16:11;-2.80;73.20
14727;DHT22;7454;51.256;8.176;2022-12-18T09:18:36;-2.70;73.20
14727;DHT22;7454;51.256;8.176;2022-12-18T09:21:09;-2.70;73.20
14727;DHT22;7454;51.256;8.176;2022-12-18T09:23:39;-2.50;72.90
14727;DHT22;7454;51.256;8.176;2022-12-18T09:26:04;-2.50;73.00
14727;DHT22;7454;51.256;8.176;2022-12-18T09:28:30;-2.30;72.60
14727;DHT22;7454;51.256;8.176;2022-12-18T09:30:55;-2.30;72.70
14727;DHT22;7454;51.256;8.176;2022-12-18T09:33:21;-2.20;72.70
14727;DHT22;7454;51.256;8.176;2022-12-18T09:35:46;-2.20;72.50
14727;DHT22;7454;51.256;8.176;2022-12-18T09:38:16;-2.20;72.30
14727;DHT22;7454;51.256;8.176;2022-12-18T09:40:49;-2.10;72.40
14727;DHT22;7454;51.256;8.176;2022-12-18T09:44:05;-2.10;72.30
14727;DHT22;7454;51.256;8.176;2022-12-18T09:46:30;-2.10;72.40
14727;DHT22;7454;51.256;8.176;2022-12-18T09:49:00;-2.10;72.20
14727;DHT22;7454;51.256;8.176;2022-12-18T09:51:38;-2.00;72.30
14727;DHT22;7454;51.256;8.176;2022-12-18T09:57:11;-1.90;72.00
14727;DHT22;7454;51.256;8.176;2022-12-18T09:59:39;-1.90;71.80
14727;DHT22;7454;51.256;8.176;2022-12-18T10:02:22;-1.80;71.70
14727;DHT22;7454;51.256;8.176;2022-12-18T10:04:54;-1.80;71.80
14727;DHT22;7454;51.256;8.176;2022-12-18T10:07:28;-1.70;71.60
14727;DHT22;7454;51.256;8.176;2022-12-18T10:10:06;-1.70;71.70
14727;DHT22;7454;51.256;8.176;2022-12-18T10:15:31;-1.60;71.40
14727;DHT22;7454;51.256;8.176;2022-12-18T10:18:17;-1.60;71.50
14727;DHT22;7454;51.256;8.176;2022-12-18T10:20:49;-1.50;71.60
14727;DHT22;7454;51.256;8.176;2022-12-18T10:26:02;-1.40;71.50
14727;DHT22;7454;51.256;8.176;2022-12-18T10:28:30;-1.40;71.50
14727;DHT22;7454;51.256;8.176;2022-12-18T10:30:57;-1.40;71.70
14727;DHT22;7454;51.256;8.176;2022-12-18T10:33:24;-1.30;71.40
14727;DHT22;7454;51.256;8.176;2022-12-18T10:35:54;-1.30;71.40
14727;DHT22;7454;51.256;8.176;2022-12-18T10:38:21;-1.20;71.20
14727;DHT22;7454;51.256;8.176;2022-12-18T10:43:19;-1.20;71.00
14727;DHT22;7454;51.256;8.176;2022-12-18T10:48:31;-1.10;70.90
14727;DHT22;7454;51.256;8.176;2022-12-18T10:50:57;-1.00;71.00
14727;DHT22;7454;51.256;8.176;2022-12-18T10:53:27;-0.90;70.90
14727;DHT22;7454;51.256;8.176;2022-12-18T10:55:54;-0.80;70.80
14727;DHT22;7454;51.256;8.176;2022-12-18T11:01:05;-0.80;70.50
14727;DHT22;7454;51.256;8.176;2022-12-18T11:03:39;-0.70;70.30
14727;DHT22;7454;51.256;8.176;2022-12-18T11:06:21;-0.70;70.10
14727;DHT22;7454;51.256;8.176;2022-12-18T11:09:02;-0.60;69.50
14727;DHT22;7454;51.256;8.176;2022-12-18T11:11:29;-0.50;69.70
14727;DHT22;7454;51.256;8.176;2022-12-18T11:14:04;-0.40;69.30
14727;DHT22;7454;51.256;8.176;2022-12-18T11:16:52;-0.40;68.90
14727;DHT22;7454;51.256;8.176;2022-12-18T11:19:26;-0.30;69.10
14727;DHT22;7454;51.256;8.176;2022-12-18T11:22:24;-0.30;69.40
14727;DHT22;7454;51.256;8.176;2022-12-18T11:24:59;-0.30;69.00
14727;DHT22;7454;51.256;8.176;2022-12-18T11:27:25;-0.30;69.10
14727;DHT22;7454;51.256;8.176;2022-12-18T11:29:51;-0.30;68.80
14727;DHT22;7454;51.256;8.176;2022-12-18T11:32:31;-0.30;68.50
14727;DHT22;7454;51.256;8.176;2022-12-18T11:35:20;-0.20;68.40
14727;DHT22;7454;51.256;8.176;2022-12-18T11:37:50;-0.20;68.70
14727;DHT22;7454;51.256;8.176;2022-12-18T11:40:26;-0.20;68.80
14727;DHT22;7454;51.256;8.176;2022-12-18T11:45:47;-0.10;68.30
14727;DHT22;7454;51.256;8.176;2022-12-18T11:48:19;0.00;68.00
14727;DHT22;7454;51.256;8.176;2022-12-18T11:50:51;0.00;67.80
14727;DHT22;7454;51.256;8.176;2022-12-18T11:53:18;0.00;67.90
14727;DHT22;7454;51.256;8.176;2022-12-18T11:56:00;0.10;67.90
14727;DHT22;7454;51.256;8.176;2022-12-18T11:58:44;0.00;68.00
14727;DHT22;7454;51.256;8.176;2022-12-18T12:09:39;0.20;66.90
14727;DHT22;7454;51.256;8.176;2022-12-18T12:15:19;0.20;67.30
14727;DHT22;7454;51.256;8.176;2022-12-18T12:20:36;0.30;67.10
14727;DHT22;7454;51.256;8.176;2022-12-18T12:23:22;0.30;66.80
14727;DHT22;7454;51.256;8.176;2022-12-18T12:26:00;0.40;67.00
14727;DHT22;7454;51.256;8.176;2022-12-18T12:31:17;0.40;66.80
14727;DHT22;7454;51.256;8.176;2022-12-18T12:36:49;0.50;66.70
14727;DHT22;7454;51.256;8.176;2022-12-18T12:39:27;0.50;66.50
14727;DHT22;7454;51.256;8.176;2022-12-18T12:41:56;0.50;66.60
14727;DHT22;7454;51.256;8.176;2022-12-18T12:44:43;0.60;66.60
14727;DHT22;7454;51.256;8.176;2022-12-18T12:47:13;0.50;66.70
14727;DHT22;7454;51.256;8.176;2022-12-18T12:49:46;0.60;66.50
14727;DHT22;7454;51.256;8.176;2022-12-18T12:52:30;0.60;66.10
14727;DHT22;7454;51.256;8.176;2022-12-18T12:54:58;0.60;66.10
14727;DHT22;7454;51.256;8.176;2022-12-18T12:57:30;0.60;66.00
14727;DHT22;7454;51.256;8.176;2022-12-18T13:02:35;0.60;66.30
14727;DHT22;7454;51.256;8.176;2022-12-18T13:07:59;0.50;65.90
14727;DHT22;7454;51.256;8.176;2022-12-18T13:10:35;0.50;65.90
14727;DHT22;7454;51.256;8.176;2022-12-18T13:13:03;0.50;65.80
14727;DHT22;7454;51.256;8.176;2022-12-18T13:20:38;0.50;65.90
14727;DHT22;7454;51.256;8.176;2022-12-18T13:36:47;0.50;65.80
14727;DHT22;7454;51.256;8.176;2022-12-18T13:41:39;0.50;65.80
14727;DHT22;7454;51.256;8.176;2022-12-18T13:44:12;0.40;65.60
14727;DHT22;7454;51.256;8.176;2022-12-18T13:46:58;0.50;66.00
14727;DHT22;7454;51.256;8.176;2022-12-18T13:49:26;0.40;65.80
14727;DHT22;7454;51.256;8.176;2022-12-18T13:51:58;0.40;65.90
14727;DHT22;7454;51.256;8.176;2022-12-18T13:54:33;0.40;65.90
14727;DHT22;7454;51.256;8.176;2022-12-18T13:57:00;0.40;65.80
14727;DHT22;7454;51.256;8.176;2022-12-18T13:59:36;0.40;66.00
14727;DHT22;7454;51.256;8.176;2022-12-18T14:02:14;0.30;66.10
14727;DHT22;7454;51.256;8.176;2022-12-18T14:04:41;0.30;65.90
14727;DHT22;7454;51.256;8.176;2022-12-18T14:07:12;0.30;66.10
14727;DHT22;7454;51.256;8.176;2022-12-18T14:09:41;0.30;65.80
14727;DHT22;7454;51.256;8.176;2022-12-18T14:12:14;0.30;65.80
14727;DHT22;7454;51.256;8.176;2022-12-18T14:17:53;0.20;66.00
14727;DHT22;7454;51.256;8.176;2022-12-18T14:20:20;0.20;66.40
14727;DHT22;7454;51.256;8.176;2022-12-18T14:22:47;0.10;66.10
14727;DHT22;7454;51.256;8.176;2022-12-18T14:25:21;0.20;66.60
14727;DHT22;7454;51.256;8.176;2022-12-18T14:27:53;0.10;66.30
14727;DHT22;7454;51.256;8.176;2022-12-18T14:30:31;0.10;66.50
14727;DHT22;7454;51.256;8.176;2022-12-18T14:33:00;0.10;66.50
14727;DHT22;7454;51.256;8.176;2022-12-18T14:35:30;0.00;66.40
14727;DHT22;7454;51.256;8.176;2022-12-18T14:40:41;0.00;66.80
14727;DHT22;7454;51.256;8.176;2022-12-18T14:43:09;0.00;66.80
14727;DHT22;7454;51.256;8.176;2022-12-18T14:45:36;0.00;66.80
14727;DHT22;7454;51.256;8.176;2022-12-18T14:48:06;-0.10;66.80
14727;DHT22;7454;51.256;8.176;2022-12-18T14:50:32;-0.10;66.80
14727;DHT22;7454;51.256;8.176;2022-12-18T14:52:58;-0.10;66.80
14727;DHT22;7454;51.256;8.176;2022-12-18T14:55:24;-0.10;66.80
14727;DHT22;7454;51.256;8.176;2022-12-18T14:57:50;-0.20;66.60
14727;DHT22;7454;51.256;8.176;2022-12-18T15:00:18;-0.20;66.70
14727;DHT22;7454;51.256;8.176;2022-12-18T15:02:53;-0.20;66.70
14727;DHT22;7454;51.256;8.176;2022-12-18T15:05:20;-0.30;67.00
14727;DHT22;7454;51.256;8.176;2022-12-18T15:07:52;-0.30;66.80
14727;DHT22;7454;51.256;8.176;2022-12-18T15:16:07;-0.40;67.00
14727;DHT22;7454;51.256;8.176;2022-12-18T15:18:15;-0.40;66.90
14727;DHT22;7454;51.256;8.176;2022-12-18T15:20:46;-0.50;67.10
14727;DHT22;7454;51.256;8.176;2022-12-18T15:23:18;-0.50;67.20
14727;DHT22;7454;51.256;8.176;2022-12-18T15:25:44;-0.50;67.10
14727;DHT22;7454;51.256;8.176;2022-12-18T15:28:15;-0.50;67.10
14727;DHT22;7454;51.256;8.176;2022-12-18T15:31:00;-0.50;67.20
14727;DHT22;7454;51.256;8.176;2022-12-18T15:33:40;-0.60;67.10
14727;DHT22;7454;51.256;8.176;2022-12-18T15:36:11;-0.60;67.20
14727;DHT22;7454;51.256;8.176;2022-12-18T15:38:41;-0.60;67.10
14727;DHT22;7454;51.256;8.176;2022-12-18T15:41:17;-0.60;67.40
14727;DHT22;7454;51.256;8.176;2022-12-18T15:43:44;-0.60;67.10
14727;DHT22;7454;51.256;8.176;2022-12-18T15:46:12;-0.60;67.10
14727;DHT22;7454;51.256;8.176;2022-12-18T15:48:40;-0.70;67.40
14727;DHT22;7454;51.256;8.176;2022-12-18T15:51:14;-0.70;67.00
14727;DHT22;7454;51.256;8.176;2022-12-18T15:53:42;-0.70;67.30
14727;DHT22;7454;51.256;8.176;2022-12-18T15:56:11;-0.70;67.10
14727;DHT22;7454;51.256;8.176;2022-12-18T15:58:56;-0.70;67.00
14727;DHT22;7454;51.256;8.176;2022-12-18T16:01:22;-0.70;67.10
14727;DHT22;7454;51.256;8.176;2022-12-18T16:03:49;-0.70;66.90
14727;DHT22;7454;51.256;8.176;2022-12-18T16:06:15;-0.70;67.20
14727;DHT22;7454;51.256;8.176;2022-12-18T16:08:41;-0.70;67.10
14727;DHT22;7454;51.256;8.176;2022-12-18T16:11:09;-0.70;67.40
14727;DHT22;7454;51.256;8.176;2022-12-18T16:13:46;-0.70;67.30
14727;DHT22;7454;51.256;8.176;2022-12-18T16:16:11;-0.80;67.40
14727;DHT22;7454;51.256;8.176;2022-12-18T16:18:37;-0.80;67.30
14727;DHT22;7454;51.256;8.176;2022-12-18T16:21:02;-0.80;67.50
14727;DHT22;7454;51.256;8.176;2022-12-18T16:23:28;-0.80;67.50
14727;DHT22;7454;51.256;8.176;2022-12-18T16:25:54;-0.80;67.30
14727;DHT22;7454;51.256;8.176;2022-12-18T16:28:19;-0.80;67.50
14727;DHT22;7454;51.256;8.176;2022-12-18T16:30:45;-0.90;67.30
14727;DHT22;7454;51.256;8.176;2022-12-18T16:33:10;-0.90;67.30
14727;DHT22;7454;51.256;8.176;2022-12-18T16:35:36;-0.90;67.50
14727;DHT22;7454;51.256;8.176;2022-12-18T16:38:02;-0.90;67.60
14727;DHT22;7454;51.256;8.176;2022-12-18T16:40:28;-0.90;67.80
14727;DHT22;7454;51.256;8.176;2022-12-18T16:42:57;-0.90;67.60
14727;DHT22;7454;51.256;8.176;2022-12-18T16:45:22;-0.90;67.70
14727;DHT22;7454;51.256;8.176;2022-12-18T16:47:48;-0.90;67.60
14727;DHT22;7454;51.256;8.176;2022-12-18T16:50:14;-0.90;67.80
14727;DHT22;7454;51.256;8.176;2022-12-18T16:52:40;-0.90;67.80
14727;DHT22;7454;51.256;8.176;2022-12-18T16:55:06;-0.90;67.90
14727;DHT22;7454;51.256;8.176;2022-12-18T16:57:32;-0.90;68.10
14727;DHT22;7454;51.256;8.176;2022-12-18T16:59:57;-1.00;68.30
14727;DHT22;7454;51.256;8.176;2022-12-18T17:02:24;-1.00;68.40
14727;DHT22;7454;51.256;8.176;2022-12-18T17:04:53;-1.00;68.60
14727;DHT22;7454;51.256;8.176;2022-12-18T17:07:20;-1.10;68.80
14727;DHT22;7454;51.256;8.176;2022-12-18T17:09:46;-1.10;68.90
14727;DHT22;7454;51.256;8.176;2022-12-18T17:12:11;-1.10;69.00
14727;DHT22;7454;51.256;8.176;2022-12-18T17:14:37;-1.10;69.20
14727;DHT22;7454;51.256;8.176;2022-12-18T17:17:03;-1.10;69.20
14727;DHT22;7454;51.256;8.176;2022-12-18T17:19:29;-1.10;69.40
14727;DHT22;7454;51.256;8.176;2022-12-18T17:21:55;-1.10;69.50
14727;DHT22;7454;51.256;8.176;2022-12-18T17:24:20;-1.10;69.70
14727;DHT22;7454;51.256;8.176;2022-12-18T17:26:46;-1.10;69.80
14727;DHT22;7454;51.256;8.176;2022-12-18T17:29:13;-1.10;70.00
14727;DHT22;7454;51.256;8.176;2022-12-18T17:31:40;-1.10;70.10
14727;DHT22;7454;51.256;8.176;2022-12-18T17:34:06;-1.10;70.30
14727;DHT22;7454;51.256;8.176;2022-12-18T17:36:33;-1.10;70.30
14727;DHT22;7454;51.256;8.176;2022-12-18T17:38:59;-1.10;70.50
14727;DHT22;7454;51.256;8.176;2022-12-18T17:41:26;-1.20;70.60
14727;DHT22;7454;51.256;8.176;2022-12-18T17:43:56;-1.20;70.70
14727;DHT22;7454;51.256;8.176;2022-12-18T17:46:23;-1.20;70.80